Ophir, Oregon
Current Conditions -  °F | °C
As of 9:04 PM on Friday 28 Nov 2014 (Local Time) from KBOK Reporting Station
Light Rain Light Rain  
Wind Chill: 13°   Ceiling: 100
Heat Index: 13°   Visibility: 3mi
Dew Point: 13°   Wind: 12mph
Humidity: 100%   Direction: 170°S
Pressure: 29.71"   Gusts: 17mph
Location:  42.56°N, 124.39°W
Report Text: KBOK 290504Z AUTO 17010G15KT 3SM -RA BR OVC001 13/13 A2971 RMK AO2 RAB0459 P0001
Loading
Personal Weather Stations






























Interactive Weather Map New forecast layout! Learn more

10-Day Weather Forecast

Advertisements
Track Severe Weather on mobile